createdAt,value
2023-03-29T00:03:22.202Z,0.60
2023-03-29T00:07:04.247Z,0.57
2023-03-29T00:10:49.164Z,0.50
2023-03-29T00:14:31.274Z,0.50
2023-03-29T00:18:13.013Z,0.80
2023-03-29T00:21:54.706Z,0.47
2023-03-29T00:25:36.483Z,0.60
2023-03-29T00:29:18.237Z,0.80
2023-03-29T00:33:00.065Z,0.83
2023-03-29T00:36:43.183Z,0.80
2023-03-29T00:40:26.788Z,0.80
2023-03-29T00:44:47.325Z,0.70
2023-03-29T00:48:30.096Z,0.50
2023-03-29T00:52:14.121Z,0.60
2023-03-29T00:56:05.307Z,0.50
2023-03-29T00:59:48.511Z,0.90
2023-03-29T01:03:37.861Z,0.60
2023-03-29T01:07:25.772Z,0.60
2023-03-29T01:11:32.437Z,0.60
2023-03-29T01:15:27.161Z,0.87
2023-03-29T01:19:13.675Z,0.80
2023-03-29T01:23:26.918Z,0.60
2023-03-29T01:27:22.885Z,0.70
2023-03-29T01:31:22.814Z,0.40
2023-03-29T01:35:11.772Z,0.80
2023-03-29T01:39:03.364Z,0.63
2023-03-29T01:43:00.655Z,0.60
2023-03-29T01:46:54.625Z,0.40
2023-03-29T01:50:58.031Z,0.57
2023-03-29T01:54:46.716Z,0.50
2023-03-29T01:58:33.945Z,0.43
2023-03-29T02:02:18.812Z,0.57
2023-03-29T02:06:03.118Z,0.40
2023-03-29T02:09:47.041Z,0.50
2023-03-29T02:13:28.840Z,0.50
2023-03-29T02:17:25.062Z,0.53
2023-03-29T02:21:08.764Z,0.73
2023-03-29T02:24:54.585Z,0.37
2023-03-29T02:28:36.764Z,0.47
2023-03-29T02:32:29.318Z,0.40
2023-03-29T02:36:20.803Z,0.50
2023-03-29T02:40:12.831Z,0.40
2023-03-29T02:43:56.680Z,0.60
2023-03-29T02:48:02.079Z,0.40
2023-03-29T02:51:45.179Z,0.43
2023-03-29T02:55:34.627Z,0.30
2023-03-29T02:59:19.430Z,0.43
2023-03-29T03:03:02.004Z,0.40
2023-03-29T03:06:44.194Z,0.53
2023-03-29T03:10:26.212Z,0.50
2023-03-29T03:14:08.132Z,0.50
2023-03-29T03:17:49.863Z,0.40
2023-03-29T03:21:31.732Z,0.40
2023-03-29T03:25:13.444Z,0.50
2023-03-29T03:28:56.229Z,0.40
2023-03-29T03:32:37.963Z,0.30
2023-03-29T03:36:19.704Z,0.30
2023-03-29T03:40:01.410Z,0.33
2023-03-29T03:43:45.963Z,0.30
2023-03-29T03:47:28.180Z,0.50
2023-03-29T03:51:10.723Z,0.40
2023-03-29T03:54:52.446Z,0.50
2023-03-29T03:58:35.616Z,0.40
2023-03-29T04:02:17.892Z,0.40
2023-03-29T04:06:03.744Z,0.40
2023-03-29T04:09:45.953Z,0.70
2023-03-29T04:13:27.995Z,0.30
2023-03-29T04:17:09.769Z,0.40
2023-03-29T04:20:51.570Z,0.40
2023-03-29T04:24:33.320Z,0.40
2023-03-29T04:28:15.463Z,0.40
2023-03-29T04:31:57.373Z,0.33
2023-03-29T04:35:42.581Z,0.40
2023-03-29T04:39:34.976Z,0.50
2023-03-29T04:43:19.842Z,0.40
2023-03-29T04:47:01.913Z,0.40
2023-03-29T04:50:46.793Z,0.30
2023-03-29T04:54:28.506Z,0.40
2023-03-29T04:58:10.222Z,0.30
2023-03-29T05:01:52.346Z,0.40
2023-03-29T05:05:34.125Z,0.50
2023-03-29T05:09:15.907Z,0.40
2023-03-29T05:12:58.285Z,0.50
2023-03-29T05:16:40.943Z,0.30
2023-03-29T05:20:23.215Z,0.43
2023-03-29T05:24:05.942Z,0.40
2023-03-29T05:27:47.816Z,0.40
2023-03-29T05:31:29.537Z,0.40
2023-03-29T05:35:11.756Z,0.40
2023-03-29T05:38:53.491Z,0.30
2023-03-29T05:42:35.522Z,0.30
2023-03-29T05:46:17.623Z,0.40
2023-03-29T05:49:59.424Z,0.20
2023-03-29T05:53:41.708Z,0.30
2023-03-29T05:57:23.530Z,0.30
2023-03-29T06:01:11.461Z,0.40
2023-03-29T06:04:54.047Z,0.30
2023-03-29T06:08:36.305Z,0.30
2023-03-29T06:12:20.143Z,0.20
2023-03-29T06:16:01.864Z,0.40
2023-03-29T06:19:44.473Z,0.30
2023-03-29T06:23:26.187Z,0.43
2023-03-29T06:27:08.056Z,0.30
2023-03-29T06:30:50.240Z,0.30
2023-03-29T06:34:32.220Z,0.40
2023-03-29T06:38:15.196Z,0.40
2023-03-29T06:41:57.003Z,0.33
2023-03-29T06:45:39.382Z,0.30
2023-03-29T06:49:21.667Z,0.40
2023-03-29T06:53:04.431Z,0.50
2023-03-29T06:56:47.344Z,0.33
2023-03-29T07:00:29.864Z,0.30
2023-03-29T07:04:11.706Z,0.40
2023-03-29T07:07:54.625Z,0.30
2023-03-29T07:11:36.885Z,0.30
2023-03-29T07:15:20.736Z,0.57
2023-03-29T07:19:03.849Z,0.30
2023-03-29T07:22:47.412Z,0.40
2023-03-29T07:26:30.584Z,0.40
2023-03-29T07:30:16.519Z,0.20
2023-03-29T07:33:58.427Z,0.40
2023-03-29T07:37:42.888Z,0.30
2023-03-29T07:41:24.711Z,0.30
2023-03-29T07:45:08.743Z,0.50
2023-03-29T07:48:50.770Z,0.30
2023-03-29T07:52:32.795Z,0.23
2023-03-29T07:56:14.756Z,0.20
2023-03-29T07:59:56.722Z,0.30
2023-03-29T08:03:38.609Z,0.20
2023-03-29T08:07:21.044Z,0.20
2023-03-29T08:11:03.099Z,0.17
2023-03-29T08:14:45.034Z,0.20
2023-03-29T08:18:26.789Z,0.10
2023-03-29T08:22:09.661Z,0.20
2023-03-29T08:25:52.101Z,0.20
2023-03-29T08:29:33.903Z,0.13
2023-03-29T08:33:16.077Z,0.20
2023-03-29T08:36:59.142Z,0.20
2023-03-29T08:40:41.778Z,0.10
2023-03-29T08:44:45.194Z,0.10
2023-03-29T08:48:42.201Z,0.10
2023-03-29T08:52:42.953Z,0.10
2023-03-29T08:56:27.992Z,0.20
2023-03-29T09:00:21.631Z,0.10
2023-03-29T09:04:20.121Z,0.10
2023-03-29T09:08:01.898Z,0.10
2023-03-29T09:11:59.745Z,0.10
2023-03-29T09:15:52.413Z,0.10
2023-03-29T09:19:51.453Z,0.17
2023-03-29T09:24:04.437Z,0.10
2023-03-29T09:27:54.221Z,0.20
2023-03-29T09:31:42.488Z,0.10
2023-03-29T09:35:32.403Z,0.20
2023-03-29T09:39:15.202Z,0.20
2023-03-29T09:42:58.542Z,0.20
2023-03-29T09:46:44.865Z,0.30
2023-03-29T09:50:42.435Z,0.10
2023-03-29T09:54:24.276Z,0.10
2023-03-29T09:58:19.691Z,0.20
2023-03-29T10:02:11.114Z,0.10
2023-03-29T10:05:55.775Z,0.10
2023-03-29T10:09:38.251Z,0.20
2023-03-29T10:13:28.820Z,0.10
2023-03-29T10:17:21.822Z,0.20
2023-03-29T10:21:05.865Z,0.20
2023-03-29T10:24:52.719Z,0.20
2023-03-29T10:28:36.606Z,0.20
2023-03-29T10:32:38.574Z,0.20
2023-03-29T10:36:22.545Z,0.20
2023-03-29T10:40:05.434Z,0.20
2023-03-29T10:43:52.424Z,0.13
2023-03-29T10:47:34.989Z,0.10
2023-03-29T10:51:19.252Z,0.10
2023-03-29T10:55:01.055Z,0.20
2023-03-29T10:59:05.632Z,0.10
2023-03-29T11:03:05.078Z,0.20
2023-03-29T11:06:58.265Z,0.17
2023-03-29T11:10:49.805Z,0.17
2023-03-29T11:14:49.976Z,0.20
2023-03-29T11:18:50.534Z,0.20
2023-03-29T11:22:45.025Z,0.20
2023-03-29T11:26:50.749Z,0.10
2023-03-29T11:30:46.739Z,0.30
2023-03-29T11:34:34.708Z,0.20
2023-03-29T11:42:24.636Z,0.20
2023-03-29T11:46:17.553Z,0.40
2023-03-29T11:50:19.652Z,0.20
2023-03-29T11:54:21.497Z,0.27
2023-03-29T11:58:10.899Z,0.30
2023-03-29T12:02:01.994Z,0.20
2023-03-29T12:05:52.106Z,0.20
2023-03-29T12:09:39.849Z,0.47
2023-03-29T12:13:28.840Z,0.30
2023-03-29T12:17:15.108Z,0.47
2023-03-29T12:21:00.507Z,0.20
2023-03-29T12:24:45.817Z,0.30
2023-03-29T12:29:09.216Z,0.50
2023-03-29T12:33:17.817Z,0.50
2023-03-29T12:37:08.436Z,0.40
2023-03-29T12:40:59.641Z,0.40
2023-03-29T12:44:46.807Z,0.30
2023-03-29T12:48:30.454Z,0.30
2023-03-29T12:52:23.630Z,0.40
2023-03-29T12:56:11.680Z,0.30
2023-03-29T12:59:53.514Z,0.50
2023-03-29T13:03:44.185Z,0.30
2023-03-29T13:07:28.726Z,0.40
2023-03-29T13:11:28.137Z,0.40
2023-03-29T13:15:16.857Z,0.40
2023-03-29T13:19:34.289Z,0.33
2023-03-29T13:23:21.629Z,0.20
2023-03-29T13:27:37.256Z,0.20
2023-03-29T13:31:44.321Z,0.20
2023-03-29T13:35:37.765Z,0.40
2023-03-29T13:39:28.815Z,0.30
2023-03-29T13:43:19.302Z,0.30
2023-03-29T13:47:04.573Z,0.23
2023-03-29T13:51:18.209Z,0.50
2023-03-29T13:55:19.515Z,0.40
2023-03-29T13:59:15.504Z,0.30
2023-03-29T14:03:04.184Z,0.30
2023-03-29T14:06:53.065Z,0.27
2023-03-29T14:10:41.280Z,0.20
2023-03-29T14:14:25.023Z,0.20
2023-03-29T14:18:12.061Z,0.30
2023-03-29T14:21:53.861Z,0.20
2023-03-29T14:25:38.895Z,0.20
2023-03-29T14:29:21.898Z,0.20
2023-03-29T14:33:05.272Z,0.20
2023-03-29T14:36:54.076Z,0.40
2023-03-29T14:40:36.131Z,0.20
2023-03-29T14:44:21.060Z,0.20
2023-03-29T14:48:03.424Z,0.20
2023-03-29T14:51:47.043Z,0.20
2023-03-29T14:55:28.991Z,0.20
2023-03-29T14:59:38.489Z,0.30
2023-03-29T15:03:26.496Z,0.40
2023-03-29T15:07:09.702Z,0.40
2023-03-29T15:10:51.484Z,0.30
2023-03-29T15:14:36.975Z,0.33
2023-03-29T15:18:22.525Z,0.40
2023-03-29T15:22:10.135Z,0.50
2023-03-29T15:26:08.626Z,0.30
2023-03-29T15:30:01.297Z,0.50
2023-03-29T15:33:43.300Z,0.40
2023-03-29T15:37:25.526Z,0.40
2023-03-29T15:41:08.403Z,0.40
2023-03-29T15:44:54.743Z,0.40
2023-03-29T15:48:36.598Z,0.40
2023-03-29T15:52:18.306Z,0.40
2023-03-29T15:56:02.280Z,0.30
2023-03-29T15:59:44.816Z,0.40
2023-03-29T16:03:29.661Z,0.60
2023-03-29T16:07:17.082Z,0.30
2023-03-29T16:10:58.907Z,0.40
2023-03-29T16:14:43.062Z,0.50
2023-03-29T16:18:25.045Z,0.43
2023-03-29T16:22:07.522Z,0.50
2023-03-29T16:25:49.373Z,0.30
2023-03-29T16:29:31.701Z,0.47
2023-03-29T16:33:14.128Z,0.40
2023-03-29T16:36:55.994Z,0.30
2023-03-29T16:40:38.397Z,0.40
2023-03-29T16:44:26.820Z,0.40
2023-03-29T16:48:17.272Z,0.37
2023-03-29T16:51:59.750Z,0.30
2023-03-29T16:55:42.587Z,0.40
2023-03-29T16:59:24.298Z,0.40
2023-03-29T17:03:06.742Z,0.30
2023-03-29T17:06:48.689Z,0.40
2023-03-29T17:10:31.350Z,0.40
2023-03-29T17:14:13.621Z,0.40
2023-03-29T17:17:55.727Z,0.30
2023-03-29T17:21:37.518Z,0.50
2023-03-29T17:25:19.296Z,0.50
2023-03-29T17:29:01.004Z,0.30
2023-03-29T17:32:42.951Z,0.30
2023-03-29T17:36:25.369Z,0.40
2023-03-29T17:40:14.118Z,0.30
2023-03-29T17:43:56.025Z,0.30
2023-03-29T17:47:38.698Z,0.30
2023-03-29T17:51:20.737Z,0.33
2023-03-29T17:55:02.591Z,0.30
2023-03-29T17:58:44.357Z,0.20
2023-03-29T18:02:26.490Z,0.20
2023-03-29T18:06:08.745Z,0.30
2023-03-29T18:09:51.754Z,0.33
2023-03-29T18:13:33.701Z,0.33
2023-03-29T18:17:15.929Z,0.23
2023-03-29T18:20:57.819Z,0.20
2023-03-29T18:24:39.536Z,0.20
2023-03-29T18:28:21.470Z,0.10
2023-03-29T18:32:04.152Z,0.30
2023-03-29T18:35:50.353Z,0.30
2023-03-29T18:39:34.635Z,0.30
2023-03-29T18:43:16.639Z,0.30
2023-03-29T18:46:58.412Z,0.20
2023-03-29T18:50:44.880Z,0.20
2023-03-29T18:54:26.849Z,0.20
2023-03-29T18:58:13.243Z,0.20
2023-03-29T19:01:55.004Z,0.30
2023-03-29T19:05:40.229Z,0.30
2023-03-29T19:09:23.081Z,0.30
2023-03-29T19:13:06.036Z,0.30
2023-03-29T19:16:47.744Z,0.50
2023-03-29T19:20:29.957Z,0.20
2023-03-29T19:24:11.978Z,0.20
2023-03-29T19:27:53.679Z,0.30
2023-03-29T19:31:37.887Z,0.20
2023-03-29T19:35:20.404Z,0.30
2023-03-29T19:39:02.310Z,0.20
2023-03-29T19:42:44.086Z,0.20
2023-03-29T19:46:27.754Z,0.33
2023-03-29T19:50:12.260Z,0.30
2023-03-29T19:53:57.089Z,0.40
2023-03-29T19:57:38.804Z,0.30
2023-03-29T20:01:21.402Z,0.30
2023-03-29T20:05:04.293Z,0.33
2023-03-29T20:08:46.790Z,0.43
2023-03-29T20:12:28.683Z,0.40
2023-03-29T20:16:16.328Z,0.50
2023-03-29T20:19:58.925Z,0.43
2023-03-29T20:23:41.177Z,0.50
2023-03-29T20:27:23.342Z,0.77
2023-03-29T20:31:08.077Z,0.40
2023-03-29T20:34:49.797Z,0.40
2023-03-29T20:38:31.535Z,0.40
2023-03-29T20:42:14.121Z,0.40
2023-03-29T20:45:55.884Z,0.43
2023-03-29T20:49:37.720Z,0.77
2023-03-29T20:53:20.583Z,0.67
2023-03-29T20:57:03.123Z,0.40
2023-03-29T21:00:45.291Z,0.40
2023-03-29T21:04:28.250Z,0.50
2023-03-29T21:08:10.006Z,0.60
2023-03-29T21:11:53.228Z,0.50
2023-03-29T21:15:35.273Z,0.40
2023-03-29T21:19:17.640Z,0.50
2023-03-29T21:23:00.236Z,0.60
2023-03-29T21:26:42.178Z,0.60
2023-03-29T21:30:23.917Z,0.60
2023-03-29T21:34:05.843Z,0.80
2023-03-29T21:37:47.572Z,0.80
2023-03-29T21:41:29.352Z,0.80
2023-03-29T21:45:11.441Z,0.60
2023-03-29T21:48:53.246Z,0.50
2023-03-29T21:52:35.066Z,0.57
2023-03-29T21:56:16.882Z,0.60
2023-03-29T21:59:58.716Z,0.87
2023-03-29T22:03:40.619Z,0.80
2023-03-29T22:07:26.500Z,0.70
2023-03-29T22:11:11.012Z,0.97
2023-03-29T22:14:52.894Z,0.60
2023-03-29T22:18:42.864Z,0.97
2023-03-29T22:22:25.697Z,0.90
2023-03-29T22:26:09.700Z,1.40
2023-03-29T22:29:51.422Z,0.80
2023-03-29T22:33:34.303Z,0.77
2023-03-29T22:37:16.179Z,0.70
2023-03-29T22:40:57.911Z,1.30
2023-03-29T22:44:39.823Z,1.13
2023-03-29T22:48:21.545Z,0.80
2023-03-29T22:52:03.380Z,0.90
2023-03-29T22:55:46.415Z,0.97
2023-03-29T22:59:28.386Z,1.07
2023-03-29T23:03:10.531Z,1.07
2023-03-29T23:06:53.182Z,1.37
2023-03-29T23:10:34.975Z,1.07
2023-03-29T23:14:16.715Z,0.87
2023-03-29T23:17:58.672Z,0.90
2023-03-29T23:21:41.075Z,0.93
2023-03-29T23:25:22.815Z,1.00
2023-03-29T23:29:04.552Z,1.27
2023-03-29T23:32:46.974Z,1.10
2023-03-29T23:36:31.412Z,1.03
2023-03-29T23:40:14.126Z,0.90
2023-03-29T23:43:57.583Z,1.10
2023-03-29T23:47:40.074Z,0.83
2023-03-29T23:51:28.841Z,1.57
2023-03-29T23:55:14.607Z,0.80
2023-03-29T23:58:56.627Z,1.00
